createdAt,value
2018-08-09T00:00:05.118Z,17.80
2018-08-09T00:02:33.593Z,17.60
2018-08-09T00:05:02.070Z,17.80
2018-08-09T00:07:30.549Z,17.70
2018-08-09T00:09:59.009Z,17.70
2018-08-09T00:12:27.450Z,17.50
2018-08-09T00:14:56.783Z,17.60
2018-08-09T00:17:25.289Z,17.50
2018-08-09T00:19:53.732Z,17.40
2018-08-09T00:22:22.185Z,17.40
2018-08-09T00:24:50.606Z,17.40
2018-08-09T00:27:19.132Z,17.30
2018-08-09T00:29:47.595Z,17.20
2018-08-09T00:32:16.042Z,17.10
2018-08-09T00:34:44.663Z,17.10
2018-08-09T00:37:13.089Z,17.00
2018-08-09T00:39:41.512Z,17.00
2018-08-09T00:42:09.954Z,17.00
2018-08-09T00:44:38.556Z,17.00
2018-08-09T00:47:07.033Z,17.00
2018-08-09T00:49:35.473Z,17.10
2018-08-09T00:52:03.971Z,17.20
2018-08-09T00:54:32.421Z,17.20
2018-08-09T00:57:00.960Z,17.20
2018-08-09T00:59:29.398Z,17.10
2018-08-09T01:01:57.824Z,17.10
2018-08-09T01:04:26.404Z,17.20
2018-08-09T01:06:54.900Z,17.10
2018-08-09T01:09:23.328Z,17.00
2018-08-09T01:11:51.799Z,16.90
2018-08-09T01:14:20.233Z,16.90
2018-08-09T01:16:48.680Z,16.90
2018-08-09T01:19:17.113Z,16.80
2018-08-09T01:21:45.573Z,16.80
2018-08-09T01:24:14.008Z,16.80
2018-08-09T01:26:42.433Z,16.70
2018-08-09T01:29:10.908Z,16.80
2018-08-09T01:31:39.676Z,16.70
2018-08-09T01:34:09.401Z,16.70
2018-08-09T01:36:38.393Z,16.70
2018-08-09T01:39:08.523Z,16.70
2018-08-09T01:41:36.957Z,16.60
2018-08-09T01:44:06.489Z,16.70
2018-08-09T01:46:34.996Z,16.60
2018-08-09T01:49:03.482Z,16.60
2018-08-09T01:51:32.148Z,16.80
2018-08-09T01:54:00.569Z,16.90
2018-08-09T01:56:29.040Z,16.90
2018-08-09T01:58:57.516Z,16.90
2018-08-09T02:01:25.980Z,16.90
2018-08-09T02:03:54.485Z,16.80
2018-08-09T02:06:22.973Z,16.80
2018-08-09T02:08:51.393Z,16.80
2018-08-09T02:11:19.812Z,16.90
2018-08-09T02:13:48.257Z,16.90
2018-08-09T02:16:16.669Z,16.90
2018-08-09T02:18:45.123Z,16.80
2018-08-09T02:21:13.560Z,16.60
2018-08-09T02:23:42.034Z,16.60
2018-08-09T02:26:10.460Z,16.50
2018-08-09T02:28:38.912Z,16.60
2018-08-09T02:31:07.392Z,16.60
2018-08-09T02:33:35.875Z,16.50
2018-08-09T02:36:04.314Z,16.60
2018-08-09T02:38:32.764Z,16.50
2018-08-09T02:41:01.222Z,16.50
2018-08-09T02:43:29.661Z,16.50
2018-08-09T02:45:58.093Z,16.40
2018-08-09T02:48:26.545Z,16.50
2018-08-09T02:50:54.961Z,16.40
2018-08-09T02:53:23.809Z,16.40
2018-08-09T02:55:52.309Z,16.50
2018-08-09T02:58:20.733Z,16.60
2018-08-09T03:00:49.216Z,16.80
2018-08-09T03:03:17.684Z,16.90
2018-08-09T03:05:46.161Z,17.00
2018-08-09T03:08:14.593Z,17.20
2018-08-09T03:10:43.108Z,17.30
2018-08-09T03:13:11.556Z,17.40
2018-08-09T03:15:40.592Z,17.40
2018-08-09T03:18:09.033Z,17.40
2018-08-09T03:20:37.508Z,17.50
2018-08-09T03:23:05.928Z,17.60
2018-08-09T03:25:34.383Z,17.70
2018-08-09T03:28:02.836Z,17.80
2018-08-09T03:30:31.345Z,17.80
2018-08-09T03:32:59.820Z,17.90
2018-08-09T03:35:28.579Z,17.90
2018-08-09T03:37:57.120Z,17.90
2018-08-09T03:40:25.533Z,17.80
2018-08-09T03:42:53.981Z,17.90
2018-08-09T03:45:22.387Z,17.80
2018-08-09T03:47:50.816Z,17.70
2018-08-09T03:50:19.244Z,17.70
2018-08-09T03:52:48.128Z,17.70
2018-08-09T03:55:16.568Z,17.80
2018-08-09T03:57:45.004Z,17.80
2018-08-09T04:00:13.501Z,17.70
2018-08-09T04:02:41.922Z,17.80
2018-08-09T04:05:10.848Z,17.70
2018-08-09T04:07:39.768Z,17.80
2018-08-09T04:10:08.528Z,17.80
2018-08-09T04:12:36.952Z,17.80
2018-08-09T04:15:07.583Z,17.80
2018-08-09T04:17:36.009Z,17.90
2018-08-09T04:20:05.054Z,17.90
2018-08-09T04:22:33.508Z,17.90
2018-08-09T04:25:01.972Z,17.80
2018-08-09T04:27:30.398Z,17.90
2018-08-09T04:29:58.873Z,17.90
2018-08-09T04:32:27.320Z,18.00
2018-08-09T04:34:56.258Z,18.00
2018-08-09T04:37:24.867Z,18.00
2018-08-09T04:39:53.372Z,18.00
2018-08-09T04:42:22.420Z,17.90
2018-08-09T04:44:51.841Z,18.00
2018-08-09T04:47:20.260Z,18.00
2018-08-09T04:49:48.685Z,18.00
2018-08-09T04:52:17.125Z,18.00
2018-08-09T04:54:45.552Z,18.00
2018-08-09T04:57:13.983Z,18.00
2018-08-09T04:59:42.396Z,18.00
2018-08-09T05:02:10.932Z,18.00
2018-08-09T05:04:39.368Z,18.10
2018-08-09T05:07:07.822Z,18.00
2018-08-09T05:09:36.330Z,18.10
2018-08-09T05:12:04.801Z,18.10
2018-08-09T05:14:33.254Z,18.10
2018-08-09T05:17:01.702Z,18.20
2018-08-09T05:19:30.129Z,18.30
2018-08-09T05:21:58.592Z,18.40
2018-08-09T05:24:27.008Z,18.50
2018-08-09T05:26:55.461Z,18.40
2018-08-09T05:29:23.896Z,18.40
2018-08-09T05:31:52.309Z,18.70
2018-08-09T05:34:20.745Z,18.50
2018-08-09T05:36:49.185Z,18.60
2018-08-09T05:39:17.616Z,18.90
2018-08-09T05:41:46.134Z,19.20
2018-08-09T05:44:15.213Z,19.40
2018-08-09T05:46:44.616Z,19.30
2018-08-09T05:49:13.120Z,19.50
2018-08-09T05:51:41.540Z,19.70
2018-08-09T05:54:09.995Z,19.80
2018-08-09T05:56:38.428Z,20.30
2018-08-09T05:59:06.924Z,20.00
2018-08-09T06:01:35.356Z,19.70
2018-08-09T06:04:03.916Z,19.90
2018-08-09T06:06:32.744Z,20.00
2018-08-09T06:09:01.175Z,20.40
2018-08-09T06:11:29.682Z,20.50
2018-08-09T06:13:58.112Z,20.30
2018-08-09T06:16:26.631Z,20.30
2018-08-09T06:18:55.084Z,20.60
2018-08-09T06:21:23.562Z,21.20
2018-08-09T06:23:51.996Z,21.30
2018-08-09T06:26:20.612Z,20.90
2018-08-09T06:28:49.082Z,21.30
2018-08-09T06:31:17.565Z,21.10
2018-08-09T06:33:46.025Z,21.00
2018-08-09T06:36:14.476Z,21.50
2018-08-09T06:38:43.317Z,21.90
2018-08-09T06:41:11.785Z,21.90
2018-08-09T06:43:40.288Z,22.40
2018-08-09T06:46:08.772Z,22.60
2018-08-09T06:48:37.285Z,22.30
2018-08-09T06:51:05.917Z,23.00
2018-08-09T06:53:34.814Z,22.20
2018-08-09T06:56:03.262Z,22.30
2018-08-09T06:58:31.736Z,22.00
2018-08-09T07:01:00.257Z,21.50
2018-08-09T07:03:28.759Z,21.70
2018-08-09T07:05:57.805Z,22.20
2018-08-09T07:08:26.253Z,22.40
2018-08-09T07:10:54.732Z,22.50
2018-08-09T07:13:23.185Z,22.50
2018-08-09T07:15:51.608Z,22.40
2018-08-09T07:18:20.112Z,23.00
2018-08-09T07:20:48.581Z,23.20
2018-08-09T07:23:17.047Z,23.00
2018-08-09T07:25:45.532Z,22.90
2018-08-09T07:28:13.968Z,22.40
2018-08-09T07:30:42.450Z,22.00
2018-08-09T07:33:12.361Z,22.00
2018-08-09T07:35:40.824Z,22.00
2018-08-09T07:38:09.379Z,21.80
2018-08-09T07:40:37.876Z,21.90
2018-08-09T07:43:07.028Z,21.90
2018-08-09T07:45:35.476Z,21.80
2018-08-09T07:48:04.032Z,21.60
2018-08-09T07:50:32.497Z,21.90
2018-08-09T07:53:00.964Z,22.60
2018-08-09T07:55:29.472Z,23.20
2018-08-09T07:57:58.175Z,23.80
2018-08-09T08:00:26.627Z,23.80
2018-08-09T08:02:55.112Z,23.20
2018-08-09T08:05:23.589Z,22.70
2018-08-09T08:07:52.032Z,22.70
2018-08-09T08:10:20.985Z,22.60
2018-08-09T08:12:49.471Z,22.10
2018-08-09T08:15:17.916Z,22.40
2018-08-09T08:17:46.416Z,21.90
2018-08-09T08:20:14.852Z,21.70
2018-08-09T08:22:43.344Z,21.50
2018-08-09T08:25:11.812Z,21.70
2018-08-09T08:27:40.343Z,21.80
2018-08-09T08:30:12.836Z,21.70
2018-08-09T08:32:42.062Z,21.50
2018-08-09T08:35:10.820Z,21.50
2018-08-09T08:37:39.796Z,21.50
2018-08-09T08:40:08.916Z,21.70
2018-08-09T08:42:38.420Z,21.90
2018-08-09T08:45:09.452Z,21.90
2018-08-09T08:47:37.932Z,21.50
2018-08-09T08:50:06.765Z,21.50
2018-08-09T08:52:35.676Z,21.40
2018-08-09T08:55:04.881Z,21.40
2018-08-09T08:57:33.376Z,21.30
2018-08-09T09:00:02.458Z,21.30
2018-08-09T09:02:30.876Z,21.40
2018-08-09T09:04:59.384Z,21.60
2018-08-09T09:07:27.848Z,21.80
2018-08-09T09:09:56.309Z,22.00
2018-08-09T09:12:24.764Z,22.10
2018-08-09T09:14:53.228Z,22.20
2018-08-09T09:17:21.688Z,22.80
2018-08-09T09:19:50.158Z,23.70
2018-08-09T09:22:18.678Z,23.20
2018-08-09T09:24:47.117Z,22.90
2018-08-09T09:27:15.629Z,23.40
2018-08-09T09:29:44.056Z,23.40
2018-08-09T09:32:12.501Z,23.90
2018-08-09T09:34:40.920Z,23.70
2018-08-09T09:37:09.377Z,23.50
2018-08-09T09:39:37.828Z,23.60
2018-08-09T09:42:06.545Z,24.20
2018-08-09T09:44:35.089Z,24.50
2018-08-09T09:47:03.615Z,24.30
2018-08-09T09:49:32.068Z,24.10
2018-08-09T09:52:00.536Z,24.80
2018-08-09T09:54:29.016Z,24.20
2018-08-09T09:56:57.456Z,24.40
2018-08-09T09:59:25.884Z,24.50
2018-08-09T10:01:54.356Z,24.40
2018-08-09T10:04:22.836Z,25.40
2018-08-09T10:06:51.277Z,25.00
2018-08-09T10:09:19.725Z,25.10
2018-08-09T10:11:48.878Z,24.90
2018-08-09T10:14:17.376Z,24.60
2018-08-09T10:16:45.820Z,24.50
2018-08-09T10:19:14.333Z,25.10
2018-08-09T10:21:42.793Z,25.60
2018-08-09T10:24:11.288Z,24.90
2018-08-09T10:26:39.769Z,25.80
2018-08-09T10:29:08.257Z,25.90
2018-08-09T10:31:36.716Z,25.70
2018-08-09T10:34:05.170Z,26.00
2018-08-09T10:36:33.612Z,25.60
2018-08-09T10:39:02.120Z,25.10
2018-08-09T10:41:30.589Z,25.20
2018-08-09T10:43:59.020Z,25.80
2018-08-09T10:46:27.444Z,26.00
2018-08-09T10:48:55.945Z,26.40
2018-08-09T10:51:24.360Z,26.20
2018-08-09T10:53:52.812Z,26.10
2018-08-09T10:56:21.246Z,26.20
2018-08-09T10:58:50.529Z,26.50
2018-08-09T11:01:18.980Z,26.30
2018-08-09T11:03:47.424Z,26.40
2018-08-09T11:06:16.073Z,26.20
2018-08-09T11:08:44.559Z,26.20
2018-08-09T11:11:14.080Z,25.80
2018-08-09T11:13:44.688Z,25.80
2018-08-09T11:16:14.095Z,26.00
2018-08-09T11:18:43.575Z,26.00
2018-08-09T11:21:12.209Z,25.90
2018-08-09T11:23:40.699Z,25.70
2018-08-09T11:26:09.312Z,26.10
2018-08-09T11:28:37.736Z,26.30
2018-08-09T11:31:06.193Z,26.10
2018-08-09T11:33:35.288Z,26.40
2018-08-09T11:36:03.787Z,26.50
2018-08-09T11:38:32.240Z,26.50
2018-08-09T11:41:00.693Z,26.60
2018-08-09T11:43:29.156Z,26.80
2018-08-09T11:45:57.601Z,26.90
2018-08-09T11:48:26.072Z,26.40
2018-08-09T11:50:54.584Z,26.80
2018-08-09T11:53:23.036Z,26.90
2018-08-09T11:55:51.472Z,27.00
2018-08-09T11:58:19.924Z,27.00
2018-08-09T12:00:48.377Z,27.30
2018-08-09T12:03:16.842Z,27.30
2018-08-09T12:05:45.339Z,27.20
2018-08-09T12:08:13.808Z,27.10
2018-08-09T12:10:42.265Z,27.00
2018-08-09T12:13:10.784Z,27.10
2018-08-09T12:15:39.260Z,26.80
2018-08-09T12:18:07.808Z,26.30
2018-08-09T12:20:36.270Z,25.70
2018-08-09T12:23:05.212Z,24.20
2018-08-09T12:25:33.708Z,22.30
2018-08-09T12:28:02.307Z,21.90
2018-08-09T12:30:30.773Z,21.30
2018-08-09T12:32:59.272Z,21.10
2018-08-09T12:35:27.750Z,21.00
2018-08-09T12:37:56.301Z,21.00
2018-08-09T12:40:24.808Z,21.00
2018-08-09T12:42:53.347Z,21.30
2018-08-09T12:45:21.848Z,21.20
2018-08-09T12:47:50.329Z,21.20
2018-08-09T12:50:18.781Z,21.30
2018-08-09T12:52:47.241Z,21.30
2018-08-09T12:55:15.746Z,21.60
2018-08-09T12:57:44.206Z,21.90
2018-08-09T13:00:13.733Z,22.30
2018-08-09T13:02:42.720Z,22.80
2018-08-09T13:05:12.748Z,23.10
2018-08-09T13:07:43.817Z,23.30
2018-08-09T13:10:13.462Z,23.90
2018-08-09T13:12:42.164Z,24.10
2018-08-09T13:15:12.732Z,24.40
2018-08-09T13:17:42.341Z,24.20
2018-08-09T13:20:14.040Z,24.20
2018-08-09T13:22:42.545Z,24.20
2018-08-09T13:25:11.253Z,24.00
2018-08-09T13:27:40.029Z,23.80
2018-08-09T13:30:11.714Z,23.90
2018-08-09T13:32:41.713Z,23.90
2018-08-09T13:35:10.443Z,23.50
2018-08-09T13:37:39.346Z,23.50
2018-08-09T13:40:09.260Z,23.60
2018-08-09T13:42:38.146Z,23.90
2018-08-09T13:45:09.332Z,23.90
2018-08-09T13:47:38.721Z,23.80
2018-08-09T13:50:08.105Z,23.80
2018-08-09T13:52:36.602Z,23.80
2018-08-09T13:55:06.096Z,23.90
2018-08-09T13:57:34.573Z,24.00
2018-08-09T14:00:03.084Z,24.00
2018-08-09T14:02:31.566Z,24.20
2018-08-09T14:05:00.065Z,24.30
2018-08-09T14:07:28.552Z,24.20
2018-08-09T14:09:57.045Z,24.00
2018-08-09T14:12:25.537Z,24.00
2018-08-09T14:14:53.988Z,23.90
2018-08-09T14:17:22.536Z,23.90
2018-08-09T14:19:51.008Z,23.90
2018-08-09T14:22:19.603Z,23.90
2018-08-09T14:24:48.123Z,24.00
2018-08-09T14:27:16.553Z,24.10
2018-08-09T14:29:45.025Z,24.30
2018-08-09T14:32:13.572Z,24.50
2018-08-09T14:34:42.041Z,24.60
2018-08-09T14:37:10.593Z,24.90
2018-08-09T14:39:39.064Z,25.40
2018-08-09T14:42:07.677Z,25.30
2018-08-09T14:44:36.057Z,25.50
2018-08-09T14:47:04.533Z,25.80
2018-08-09T14:49:33.280Z,26.30
2018-08-09T14:52:02.437Z,26.10
2018-08-09T14:54:30.944Z,26.00
2018-08-09T14:56:59.428Z,26.10
2018-08-09T14:59:29.480Z,25.90
2018-08-09T15:01:58.656Z,25.50
2018-08-09T15:04:27.167Z,25.70
2018-08-09T15:06:55.641Z,25.70
2018-08-09T15:09:24.794Z,25.60
2018-08-09T15:11:53.373Z,25.40
2018-08-09T15:14:21.919Z,25.50
2018-08-09T15:16:50.969Z,25.50
2018-08-09T15:19:19.536Z,25.30
2018-08-09T15:21:48.144Z,25.20
2018-08-09T15:24:17.427Z,25.30
2018-08-09T15:26:46.635Z,25.00
2018-08-09T15:29:15.208Z,25.00
2018-08-09T15:31:43.731Z,25.10
2018-08-09T15:34:12.216Z,25.00
2018-08-09T15:36:40.735Z,24.90
2018-08-09T15:39:11.497Z,25.00
2018-08-09T15:41:40.770Z,25.00
2018-08-09T15:44:10.181Z,24.80
2018-08-09T15:46:38.772Z,25.00
2018-08-09T15:49:07.404Z,25.00
2018-08-09T15:51:36.436Z,24.90
2018-08-09T15:54:05.049Z,24.90
2018-08-09T15:56:33.580Z,25.00
2018-08-09T15:59:02.222Z,24.90
2018-08-09T16:01:30.795Z,24.70
2018-08-09T16:03:59.785Z,24.70
2018-08-09T16:06:28.480Z,24.70
2018-08-09T16:08:58.104Z,24.80
2018-08-09T16:11:26.750Z,24.90
2018-08-09T16:13:56.204Z,24.90
2018-08-09T16:16:24.865Z,24.70
2018-08-09T16:18:53.249Z,24.80
2018-08-09T16:21:21.714Z,24.80
2018-08-09T16:23:50.448Z,24.90
2018-08-09T16:26:19.116Z,25.00
2018-08-09T16:28:47.648Z,25.00
2018-08-09T16:31:16.168Z,25.00
2018-08-09T16:33:44.668Z,24.80
2018-08-09T16:36:13.134Z,24.80
2018-08-09T16:38:41.609Z,24.70
2018-08-09T16:41:10.141Z,24.70
2018-08-09T16:43:38.636Z,24.30
2018-08-09T16:46:07.336Z,24.30
2018-08-09T16:48:35.860Z,24.30
2018-08-09T16:51:04.417Z,24.20
2018-08-09T16:53:32.877Z,24.20
2018-08-09T16:56:01.433Z,24.00
2018-08-09T16:58:29.968Z,23.50
2018-08-09T17:00:58.469Z,20.10
2018-08-09T17:03:27.079Z,19.30
2018-08-09T17:05:55.584Z,19.10
2018-08-09T17:08:24.252Z,19.10
2018-08-09T17:10:53.492Z,19.00
2018-08-09T17:13:22.009Z,19.40
2018-08-09T17:15:50.843Z,19.30
2018-08-09T17:18:19.394Z,19.20
2018-08-09T17:20:47.949Z,19.10
2018-08-09T17:23:16.453Z,19.10
2018-08-09T17:25:45.004Z,19.20
2018-08-09T17:28:14.448Z,19.20
2018-08-09T17:30:42.958Z,19.10
2018-08-09T17:33:11.472Z,19.10
2018-08-09T17:35:40.018Z,19.10
2018-08-09T17:38:08.473Z,19.10
2018-08-09T17:40:36.972Z,19.00
2018-08-09T17:43:05.728Z,19.10
2018-08-09T17:45:35.265Z,19.00
2018-08-09T17:48:04.377Z,19.10
2018-08-09T17:50:32.884Z,19.10
2018-08-09T17:53:02.584Z,19.10
2018-08-09T17:55:31.941Z,19.20
2018-08-09T17:58:00.535Z,19.40
2018-08-09T18:00:30.453Z,19.40
2018-08-09T18:02:59.012Z,19.30
2018-08-09T18:05:27.902Z,19.30
2018-08-09T18:07:57.205Z,19.40
2018-08-09T18:10:27.681Z,19.40
2018-08-09T18:12:56.533Z,19.30
2018-08-09T18:15:26.705Z,19.20
2018-08-09T18:17:55.712Z,19.10
2018-08-09T18:20:26.329Z,19.10
2018-08-09T18:22:54.909Z,19.00
2018-08-09T18:25:23.416Z,19.10
2018-08-09T18:27:51.985Z,19.20
2018-08-09T18:30:20.901Z,19.10
2018-08-09T18:32:49.548Z,19.00
2018-08-09T18:35:19.004Z,18.90
2018-08-09T18:37:47.564Z,18.90
2018-08-09T18:40:19.874Z,18.90
2018-08-09T18:42:48.341Z,18.90
2018-08-09T18:45:16.857Z,18.80
2018-08-09T18:47:45.372Z,18.70
2018-08-09T18:50:18.057Z,18.70
2018-08-09T18:52:47.057Z,18.70
2018-08-09T18:55:16.708Z,18.60
2018-08-09T18:57:45.205Z,18.60
2018-08-09T19:00:29.662Z,18.70
2018-08-09T19:02:58.794Z,19.00
2018-08-09T19:05:27.577Z,19.00
2018-08-09T19:07:56.946Z,18.90
2018-08-09T19:10:27.567Z,19.00
2018-08-09T19:12:56.149Z,19.20
2018-08-09T19:15:24.644Z,19.20
2018-08-09T19:17:53.363Z,19.20
2018-08-09T19:20:28.504Z,19.20
2018-08-09T19:22:57.308Z,19.10
2018-08-09T19:25:25.808Z,19.20
2018-08-09T19:27:54.352Z,19.20
2018-08-09T19:30:24.832Z,19.00
2018-08-09T19:32:53.420Z,18.90
2018-08-09T19:35:22.853Z,18.70
2018-08-09T19:37:51.432Z,18.60
2018-08-09T19:40:23.244Z,18.50
2018-08-09T19:42:51.757Z,18.50
2018-08-09T19:45:20.456Z,18.50
2018-08-09T19:47:49.085Z,18.50
2018-08-09T19:50:19.481Z,18.50
2018-08-09T19:52:47.988Z,18.50
2018-08-09T19:55:19.897Z,18.30
2018-08-09T19:57:49.320Z,18.30
2018-08-09T20:00:23.224Z,18.30
2018-08-09T20:02:51.777Z,18.30
2018-08-09T20:05:20.244Z,18.30
2018-08-09T20:07:48.984Z,18.30
2018-08-09T20:10:17.503Z,18.30
2018-08-09T20:12:46.869Z,18.20
2018-08-09T20:15:20.089Z,18.00
2018-08-09T20:17:48.644Z,17.60
2018-08-09T20:20:18.733Z,17.30
2018-08-09T20:22:47.268Z,17.00
2018-08-09T20:25:16.123Z,17.00
2018-08-09T20:27:45.932Z,16.90
2018-08-09T20:30:15.965Z,16.90
2018-08-09T20:32:45.116Z,16.80
2018-08-09T20:35:16.182Z,16.80
2018-08-09T20:37:45.812Z,16.90
2018-08-09T20:40:15.614Z,17.00
2018-08-09T20:42:45.160Z,17.00
2018-08-09T20:45:15.347Z,17.00
2018-08-09T20:47:43.949Z,16.90
2018-08-09T20:50:15.015Z,16.90
2018-08-09T20:52:44.548Z,16.80
2018-08-09T20:55:13.086Z,16.90
2018-08-09T20:57:42.805Z,16.80
2018-08-09T21:00:17.044Z,16.80
2018-08-09T21:02:46.793Z,16.70
2018-08-09T21:05:23.356Z,16.70
2018-08-09T21:07:53.143Z,16.60
2018-08-09T21:10:22.243Z,16.70
2018-08-09T21:12:50.804Z,16.70
2018-08-09T21:15:19.943Z,16.70
2018-08-09T21:17:48.513Z,16.60
2018-08-09T21:20:17.167Z,16.60
2018-08-09T21:22:46.761Z,16.60
2018-08-09T21:25:15.299Z,16.60
2018-08-09T21:27:44.441Z,16.50
2018-08-09T21:30:16.134Z,16.50
2018-08-09T21:32:45.184Z,16.50
2018-08-09T21:35:13.666Z,16.40
2018-08-09T21:37:42.783Z,16.50
2018-08-09T21:40:12.056Z,16.50
2018-08-09T21:42:40.560Z,16.40
2018-08-09T21:45:11.477Z,16.40
2018-08-09T21:47:39.993Z,16.40
2018-08-09T21:50:13.041Z,16.30
2018-08-09T21:52:41.948Z,16.30
2018-08-09T21:55:11.237Z,16.30
2018-08-09T21:57:39.752Z,16.30
2018-08-09T22:00:15.141Z,16.30
2018-08-09T22:02:43.642Z,16.30
2018-08-09T22:05:17.401Z,16.30
2018-08-09T22:08:50.840Z,16.30
2018-08-09T22:11:24.782Z,16.30
2018-08-09T22:13:58.564Z,16.20
2018-08-09T22:16:32.340Z,16.20
2018-08-09T22:19:06.117Z,16.20
2018-08-09T22:21:39.841Z,16.20
2018-08-09T22:24:08.352Z,16.10
2018-08-09T22:26:36.797Z,16.20
2018-08-09T22:29:05.383Z,16.10
2018-08-09T22:31:33.826Z,16.10
2018-08-09T22:34:02.292Z,16.00
2018-08-09T22:36:30.729Z,15.70
2018-08-09T22:38:59.204Z,15.40
2018-08-09T22:41:27.653Z,15.10
2018-08-09T22:43:56.086Z,15.00
2018-08-09T22:46:24.609Z,15.00
2018-08-09T22:48:53.053Z,15.00
2018-08-09T22:51:21.496Z,15.20
2018-08-09T22:53:49.993Z,15.30
2018-08-09T22:56:18.469Z,15.20
2018-08-09T22:58:46.945Z,15.00
2018-08-09T23:01:15.397Z,14.80
2018-08-09T23:03:43.984Z,14.80
2018-08-09T23:06:12.463Z,14.90
2018-08-09T23:08:41.015Z,15.00
2018-08-09T23:11:09.421Z,15.00
2018-08-09T23:13:37.948Z,15.10
2018-08-09T23:16:06.577Z,15.10
2018-08-09T23:18:35.052Z,15.10
2018-08-09T23:21:03.533Z,15.10
2018-08-09T23:23:31.980Z,15.00
2018-08-09T23:26:00.454Z,14.90
2018-08-09T23:28:29.297Z,14.90
2018-08-09T23:30:57.769Z,14.80
2018-08-09T23:33:26.956Z,14.80
2018-08-09T23:35:55.404Z,14.70
2018-08-09T23:38:23.832Z,14.90
2018-08-09T23:40:52.302Z,15.00
2018-08-09T23:43:20.775Z,15.10
2018-08-09T23:45:49.260Z,15.00
2018-08-09T23:48:17.713Z,15.10
2018-08-09T23:50:46.156Z,15.10
2018-08-09T23:53:14.624Z,15.10
2018-08-09T23:55:43.077Z,15.10
2018-08-09T23:58:11.572Z,15.00
